Portada
METAR-TAF:

METAR-TAF

Aeroports :

Txungking, Xina

latitud: 29-31N, longitud: 106-29E, altitud: 351 m

Observació

L'informe es va fer fa 30 minuts, a les 06:00 UTC
Vent 6 kt del Est/Nord-Est, variant entre Nord/Nord-Est i Est/Sud-Est
Temperatura 14°C
Humitat 55%
Pressió 1020 hPa
Visibilitat 10 km o més
Escasses núvols a una alçada de 3000 ft

METAR: ZUCK 230600Z 07003MPS 020V120 9999 FEW030 14/05 Q1020 NOSIG

Hora: 14:30 (06:30 UTC)

Pronòstic

L'informe es va fer fa 3 hores i 27 minuts, a les 03:03 UTC
Pronòstic vàlid del 23 a les 06 UTC al 24 a les 06 UTC
Vent 6 kt del Est
Visibilitat: 5000 m
Núvols disperses a una alçada de 3000 ft
Cel cobert a una alçada de 4000 ft
boirina
Temporalment
l' 23 a les 16 UTC al 23 a les 22 UTC
Visibilitat: 3000 m
pluja, boirina

TAF: ZUCK 230303Z 2306/2406 10003MPS 5000 BR SCT030 OVC040 TX11/2307Z TN08/2322Z TEMPO 2316/2322 3000 -RA BR

Observacions i pronòstics meteorològics de més de 4000 aeroports (METAR i TAF).

Les estacions disponibles són els punts grocs i vermells al mapa.

Posi el ratolí al punt desitjat per veure el nom de l'estació.

Feu clic per veure les observacions i els pronòstics meteorològics.

Per canviar el mapa: feu clic els botons verds amb una creu de color negre per apropar; al botó verd amb un guió per allunyar la imatge; o en les fletxes verdes per a mapes adjacents.


METAR-TAF: